Time;durP1;ratioP1;P1;durP2;ratioP2;P2;SDS_P1;SDS_P2;PMS_P1;PMS_P2;Temp;Humidity;BMP_temperature;BMP_pressure;BME280_temperature;BME280_humidity;BME280_pressure;Samples;Min_cycle;Max_cycle;Signal;HPM_P1;HPM_P2
2023/07/09 00:00:01;;;;;;;1.70;1.60;;;;;;;22.81;100.00;151772.19;5071877;28;20667;-62
2023/07/09 00:02:28;;;;;;;2.85;1.58;;;;;;;22.93;100.00;151804.06;5072130;28;20219;-61
2023/07/09 00:04:55;;;;;;;1.88;1.77;;;;;;;22.83;100.00;151778.53;5072226;28;20185;-62
2023/07/09 00:07:33;;;;;;;2.00;1.60;;;;;;;22.90;100.00;151796.44;5071965;28;20200;-62
2023/07/09 00:10:00;;;;;;;4.57;1.80;;;;;;;22.89;100.00;151793.88;5072066;28;20185;-63
2023/07/09 00:12:27;;;;;;;1.90;1.80;;;;;;;22.83;100.00;151778.53;5071995;28;20208;-61
2023/07/09 00:14:56;;;;;;;1.85;1.75;;;;;;;22.82;100.00;151776.03;5071839;28;20185;-61
2023/07/09 00:17:30;;;;;;;1.50;1.50;;;;;;;22.78;100.00;151765.81;5071728;28;20227;-61
2023/07/09 00:19:57;;;;;;;1.50;1.50;;;;;;;22.79;100.00;151768.34;5071449;28;20204;-62
2023/07/09 00:22:26;;;;;;;1.90;1.70;;;;;;;22.69;100.00;151744.13;5071663;28;20271;-61
2023/07/09 00:24:56;;;;;;;1.90;1.80;;;;;;;22.75;100.00;151758.13;5071897;28;20185;-62
2023/07/09 00:27:28;;;;;;;1.77;1.67;;;;;;;22.62;100.00;151726.22;5071810;28;20308;-62
2023/07/09 00:29:55;;;;;;;1.63;1.63;;;;;;;22.45;100.00;151681.59;5071783;28;20542;-62
2023/07/09 00:32:28;;;;;;;2.10;2.00;;;;;;;22.18;100.00;151614.00;5071526;28;20192;-63
2023/07/09 00:34:55;;;;;;;2.00;1.90;;;;;;;22.20;100.00;151620.38;5071522;28;20189;-61
2023/07/09 00:37:26;;;;;;;2.42;1.85;;;;;;;21.92;100.00;151547.66;5071737;28;20220;-62
2023/07/09 00:39:53;;;;;;;1.63;1.60;;;;;;;21.90;100.00;151543.81;5074052;28;20547;-61
2023/07/09 00:42:23;;;;;;;3.25;1.90;;;;;;;21.89;100.00;151541.31;5075625;28;20184;-62
2023/07/09 00:44:53;;;;;;;2.15;2.05;;;;;;;21.79;100.00;151515.78;5075651;28;20702;-63
2023/07/09 00:47:29;;;;;;;3.13;1.98;;;;;;;21.82;100.00;151524.72;5075578;28;20283;-62
2023/07/09 00:50:11;;;;;;;2.10;2.00;;;;;;;21.52;100.00;151446.94;5075792;28;20673;-62
2023/07/09 00:52:47;;;;;;;1.67;1.58;;;;;;;21.51;100.00;151444.44;5075724;28;20617;-61
2023/07/09 00:55:17;;;;;;;2.75;2.08;;;;;;;21.40;100.00;151418.94;5075647;28;20193;-61
2023/07/09 00:57:55;;;;;;;2.10;2.00;;;;;;;21.44;100.00;151427.84;5075216;28;20189;-61
2023/07/09 01:00:27;;;;;;;1.90;1.90;;;;;;;21.43;100.00;151426.56;5075729;28;20227;-63
2023/07/09 01:02:58;;;;;;;2.08;1.98;;;;;;;21.39;100.00;151416.38;5075593;28;20664;-61
2023/07/09 01:05:25;;;;;;;3.85;2.10;;;;;;;21.36;100.00;151408.72;5075062;28;20224;-61
2023/07/09 01:07:53;;;;;;;1.75;1.70;;;;;;;21.29;100.00;151390.91;5075517;28;20557;-62
2023/07/09 01:10:20;;;;;;;2.30;2.00;;;;;;;21.25;100.00;151379.44;5075177;28;20185;-64
2023/07/09 01:12:49;;;;;;;2.63;1.90;;;;;;;21.38;100.00;151413.84;5075194;28;20299;-61
2023/07/09 01:15:17;;;;;;;2.33;2.10;;;;;;;21.23;100.00;151375.59;5075176;28;20216;-61
2023/07/09 01:17:45;;;;;;;2.15;1.70;;;;;;;21.34;100.00;151402.38;5074879;28;20185;-62
2023/07/09 01:20:20;;;;;;;2.00;1.90;;;;;;;21.22;100.00;151373.03;5074840;28;20262;-61
2023/07/09 01:22:54;;;;;;;1.90;1.80;;;;;;;21.41;100.00;151420.22;5074905;28;20195;-61
2023/07/09 01:25:22;;;;;;;1.88;1.77;;;;;;;21.24;100.00;151376.88;5074801;28;20236;-62
2023/07/09 01:27:49;;;;;;;2.10;2.00;;;;;;;21.41;100.00;151421.50;5074667;28;20199;-61
2023/07/09 01:30:22;;;;;;;3.00;2.00;;;;;;;21.41;100.00;151421.50;5074905;28;20287;-62
2023/07/09 01:32:49;;;;;;;1.65;1.65;;;;;;;21.25;100.00;151380.72;5075048;28;20223;-62
2023/07/09 01:35:19;;;;;;;2.80;1.73;;;;;;;21.40;100.00;151418.94;5075049;28;20620;-61
2023/07/09 01:37:47;;;;;;;1.65;1.60;;;;;;;21.41;100.00;151420.22;5074588;28;20279;-62
2023/07/09 01:40:17;;;;;;;1.40;1.40;;;;;;;21.41;100.00;151421.50;5074565;28;20209;-61
2023/07/09 01:42:44;;;;;;;1.88;1.80;;;;;;;21.29;100.00;151390.91;5074701;28;20181;-62
2023/07/09 01:45:15;;;;;;;1.77;1.75;;;;;;;21.28;100.00;151387.06;5074231;28;20237;-62
2023/07/09 01:47:42;;;;;;;1.85;1.75;;;;;;;21.42;100.00;151422.75;5074500;28;20192;-62
2023/07/09 01:50:10;;;;;;;1.92;1.88;;;;;;;21.21;100.00;151370.53;5074002;28;20185;-62
2023/07/09 01:52:41;;;;;;;2.70;1.63;;;;;;;21.34;100.00;151402.38;5074739;28;20564;-62
2023/07/09 01:55:10;;;;;;;1.88;1.77;;;;;;;21.43;100.00;151425.28;5074409;28;20199;-62
2023/07/09 01:57:40;;;;;;;2.35;1.90;;;;;;;21.42;100.00;151422.75;5074635;28;20280;-62
2023/07/09 02:00:10;;;;;;;1.95;1.60;;;;;;;21.49;100.00;151439.31;5074629;28;20216;-61
2023/07/09 02:02:38;;;;;;;4.18;1.75;;;;;;;21.49;100.00;151439.31;5074283;28;20275;-62
2023/07/09 02:05:06;;;;;;;2.38;1.90;;;;;;;21.59;100.00;151466.09;5074316;28;20257;-62
2023/07/09 02:07:33;;;;;;;3.20;1.60;;;;;;;21.66;100.00;151482.66;5074558;28;20498;-61
2023/07/09 02:10:00;;;;;;;1.77;1.60;;;;;;;21.62;100.00;151472.44;5074397;28;20184;-62
2023/07/09 02:12:27;;;;;;;1.25;1.25;;;;;;;21.72;100.00;151497.97;5074285;28;20188;-61
2023/07/09 02:14:55;;;;;;;4.78;1.60;;;;;;;21.71;100.00;151495.41;5074373;28;20198;-61
2023/07/09 02:17:22;;;;;;;3.72;1.92;;;;;;;21.70;100.00;151492.84;5074278;28;20638;-62
2023/07/09 02:19:48;;;;;;;1.65;1.55;;;;;;;21.73;100.00;151500.47;5074122;28;20188;-62
2023/07/09 02:22:19;;;;;;;1.98;1.88;;;;;;;21.73;100.00;151500.47;5074012;28;20192;-61
2023/07/09 02:24:46;;;;;;;1.75;1.70;;;;;;;21.60;100.00;151468.59;5073615;28;20185;-60
2023/07/09 02:27:17;;;;;;;2.10;1.95;;;;;;;21.58;100.00;151463.53;5073717;28;20188;-61
2023/07/09 02:29:45;;;;;;;2.03;1.73;;;;;;;21.66;100.00;151482.66;5073472;28;20189;-61
2023/07/09 02:32:18;;;;;;;1.55;1.50;;;;;;;21.58;100.00;151463.53;5073603;28;20185;-62
2023/07/09 02:34:48;;;;;;;2.15;1.95;;;;;;;21.56;100.00;151457.13;5074005;28;20650;-62
2023/07/09 02:37:18;;;;;;;4.70;1.70;;;;;;;21.62;100.00;151472.44;5073708;28;20191;-63
2023/07/09 02:39:45;;;;;;;1.73;1.63;;;;;;;21.63;100.00;151476.28;5073751;28;20676;-61
2023/07/09 02:42:13;;;;;;;2.30;1.75;;;;;;;21.65;100.00;151480.09;5073363;28;20643;-62
2023/07/09 02:44:41;;;;;;;7.63;1.75;;;;;;;21.59;100.00;151466.09;5073480;28;20698;-62
2023/07/09 02:47:08;;;;;;;2.13;2.00;;;;;;;21.60;100.00;151468.59;5073279;28;20189;-61
2023/07/09 02:49:37;;;;;;;1.92;1.83;;;;;;;21.58;100.00;151463.53;5073446;28;20192;-63
2023/07/09 02:52:04;;;;;;;2.88;1.73;;;;;;;21.51;100.00;151444.44;5073134;28;20185;-62
2023/07/09 02:54:31;;;;;;;4.70;1.92;;;;;;;21.46;100.00;151431.69;5072213;28;20563;-62
2023/07/09 02:56:58;;;;;;;4.13;1.80;;;;;;;21.56;100.00;151458.41;5073577;28;20555;-61
2023/07/09 02:59:26;;;;;;;2.10;1.85;;;;;;;21.61;100.00;151469.88;5073297;28;20200;-61
2023/07/09 03:01:53;;;;;;;2.47;1.70;;;;;;;21.49;100.00;151439.31;5072306;28;20559;-61
2023/07/09 03:04:21;;;;;;;1.75;1.67;;;;;;;21.64;100.00;151477.56;5073190;28;20263;-62
2023/07/09 03:06:50;;;;;;;1.65;1.58;;;;;;;21.61;100.00;151469.88;5073340;28;20216;-62
2023/07/09 03:09:17;;;;;;;4.63;1.80;;;;;;;21.32;100.00;151398.53;5073314;28;20638;-62
2023/07/09 03:11:43;;;;;;;2.03;1.92;;;;;;;21.55;100.00;151454.63;5073000;28;20191;-61
2023/07/09 03:14:10;;;;;;;3.13;1.80;;;;;;;21.62;100.00;151472.44;5073089;28;20654;-61
2023/07/09 03:16:37;;;;;;;1.88;1.77;;;;;;;21.68;100.00;151487.75;5072965;28;20189;-62
2023/07/09 03:19:05;;;;;;;4.35;1.98;;;;;;;21.73;100.00;151501.75;5072753;28;20188;-62
2023/07/09 03:21:32;;;;;;;1.90;1.88;;;;;;;21.86;100.00;151534.91;5072685;28;20236;-61
2023/07/09 03:24:01;;;;;;;1.70;1.70;;;;;;;21.62;100.00;151472.44;5072594;28;20176;-62
2023/07/09 03:26:28;;;;;;;3.42;1.70;;;;;;;21.67;100.00;151485.22;5072953;28;20197;-62
2023/07/09 03:28:55;;;;;;;1.83;1.83;;;;;;;21.69;100.00;151491.56;5072625;28;20181;-61
2023/07/09 03:31:23;;;;;;;2.00;1.67;;;;;;;21.80;100.00;151518.34;5072525;28;20189;-62
2023/07/09 03:33:51;;;;;;;1.75;1.65;;;;;;;21.70;100.00;151494.13;5072558;28;20586;-61
2023/07/09 03:36:19;;;;;;;2.13;1.88;;;;;;;21.87;100.00;151536.19;5072379;28;20200;-61
2023/07/09 03:38:46;;;;;;;1.67;1.60;;;;;;;21.83;100.00;151526.00;5072391;28;20185;-61
2023/07/09 03:41:14;;;;;;;5.35;2.10;;;;;;;21.87;100.00;151536.19;5072191;28;20259;-61
2023/07/09 03:43:41;;;;;;;5.45;1.80;;;;;;;21.78;100.00;151513.22;5072028;28;20215;-63
2023/07/09 03:46:08;;;;;;;3.38;2.20;;;;;;;21.88;100.00;151540.03;5071964;28;20236;-61
2023/07/09 03:48:35;;;;;;;2.28;2.10;;;;;;;21.98;100.00;151564.25;5072168;28;20195;-61
2023/07/09 03:51:03;;;;;;;6.22;2.08;;;;;;;21.94;100.00;151552.81;5072474;28;20177;-61
2023/07/09 03:53:30;;;;;;;2.90;2.00;;;;;;;21.94;100.00;151554.06;5072290;28;20185;-62
2023/07/09 03:55:59;;;;;;;2.28;2.17;;;;;;;21.97;100.00;151560.47;5072099;28;20195;-61
2023/07/09 03:58:27;;;;;;;1.70;1.60;;;;;;;21.97;100.00;151561.75;5072464;28;20292;-60
2023/07/09 04:00:55;;;;;;;2.28;1.80;;;;;;;21.81;100.00;151522.16;5071979;28;20205;-62
2023/07/09 04:03:22;;;;;;;1.50;1.40;;;;;;;22.02;100.00;151573.22;5072035;28;20636;-62
2023/07/09 04:05:49;;;;;;;2.67;1.95;;;;;;;22.06;100.00;151583.41;5072211;28;20559;-61
2023/07/09 04:08:16;;;;;;;2.35;2.10;;;;;;;22.02;100.00;151574.50;5072126;28;20250;-62
2023/07/09 04:10:43;;;;;;;2.10;1.95;;;;;;;21.93;100.00;151551.53;5072019;28;20226;-61
2023/07/09 04:13:10;;;;;;;6.50;1.98;;;;;;;21.92;100.00;151549.00;5071800;28;20189;-61
2023/07/09 04:15:38;;;;;;;1.95;1.88;;;;;;;22.09;100.00;151592.34;5072024;28;20524;-61
2023/07/09 04:18:05;;;;;;;5.47;1.75;;;;;;;22.14;100.00;151603.81;5072237;28;20657;-61
2023/07/09 04:20:34;;;;;;;2.20;2.10;;;;;;;22.19;100.00;151617.81;5071576;28;20216;-61
2023/07/09 04:23:01;;;;;;;2.03;1.92;;;;;;;22.23;100.00;151626.78;5071866;28;20284;-61
2023/07/09 04:25:28;;;;;;;2.65;2.00;;;;;;;22.25;100.00;151633.13;5071537;28;20191;-61
2023/07/09 04:27:55;;;;;;;1.90;1.80;;;;;;;22.15;100.00;151607.59;5071795;28;20192;-61
2023/07/09 04:30:22;;;;;;;2.05;1.95;;;;;;;22.06;100.00;151584.69;5071815;28;20569;-61
2023/07/09 04:32:50;;;;;;;2.17;1.98;;;;;;;22.30;100.00;151644.59;5071857;28;20192;-62
2023/07/09 04:35:17;;;;;;;2.25;2.15;;;;;;;22.36;100.00;151659.94;5071537;28;20184;-61
2023/07/09 04:37:44;;;;;;;1.90;1.85;;;;;;;22.38;100.00;151663.72;5071374;28;20195;-62
2023/07/09 04:40:12;;;;;;;1.75;1.65;;;;;;;22.47;100.00;151687.97;5071477;28;20193;-61
2023/07/09 04:42:40;;;;;;;2.17;2.08;;;;;;;22.80;100.00;151770.91;5071421;28;20223;-61
2023/07/09 04:45:09;;;;;;;1.92;1.83;;;;;;;22.87;100.00;151788.78;5071419;28;20591;-61
2023/07/09 04:47:36;;;;;;;2.30;2.20;;;;;;;22.91;100.00;151799.00;5071303;28;20246;-61
2023/07/09 04:50:07;;;;;;;2.30;2.20;;;;;;;22.96;100.00;151810.44;5071263;28;20196;-61
2023/07/09 04:52:34;;;;;;;9.95;9.10;;;;;;;22.89;100.00;151792.59;5071676;28;20184;-61
2023/07/09 04:55:01;;;;;;;6.43;5.82;;;;;;;22.70;100.00;151746.66;5071574;28;20212;-61
2023/07/09 04:57:28;;;;;;;9.35;5.05;;;;;;;22.71;100.00;151749.22;5071535;28;20189;-61
2023/07/09 04:59:55;;;;;;;7.03;5.70;;;;;;;22.70;100.00;151746.66;5071097;28;20185;-62
2023/07/09 05:02:22;;;;;;;7.53;7.03;;;;;;;22.86;100.00;151784.94;5071049;28;20212;-61
2023/07/09 05:04:49;;;;;;;5.57;5.10;;;;;;;23.28;100.00;151890.84;5071101;28;20185;-61
2023/07/09 05:07:17;;;;;;;3.95;3.75;;;;;;;23.52;100.00;151953.41;5071417;28;20615;-62
2023/07/09 05:09:44;;;;;;;2.63;2.47;;;;;;;23.82;100.00;152028.69;5070959;28;20230;-62
2023/07/09 05:12:11;;;;;;;3.25;2.45;;;;;;;24.13;100.00;152107.88;5071068;28;20181;-62
2023/07/09 05:14:38;;;;;;;2.35;2.13;;;;;;;24.43;97.39;152181.97;5071064;28;20211;-61
2023/07/09 05:17:05;;;;;;;2.30;2.15;;;;;;;24.58;95.40;152221.53;5071256;28;20185;-61
2023/07/09 05:19:33;;;;;;;1.70;1.70;;;;;;;24.84;95.16;152285.41;5071096;28;20191;-61
2023/07/09 05:22:00;;;;;;;3.30;2.55;;;;;;;25.02;93.59;152332.72;5071000;28;20213;-62
2023/07/09 05:24:28;;;;;;;3.85;2.50;;;;;;;25.24;90.35;152386.38;5071320;28;20650;-62
2023/07/09 05:26:55;;;;;;;4.22;2.10;;;;;;;25.45;90.58;152441.34;5074563;28;20222;-61
2023/07/09 05:29:22;;;;;;;2.30;2.10;;;;;;;25.46;86.61;152443.84;5074547;28;20185;-63
2023/07/09 05:31:49;;;;;;;3.28;1.98;;;;;;;25.58;85.81;152473.34;5074774;28;20185;-62
2023/07/09 05:34:16;;;;;;;2.10;2.00;;;;;;;25.60;84.35;152478.41;5074696;28;20188;-62
2023/07/09 05:36:43;;;;;;;2.85;1.90;;;;;;;25.64;86.40;152488.63;5074565;28;20273;-63
2023/07/09 05:39:10;;;;;;;1.83;1.73;;;;;;;25.71;87.37;152506.56;5074887;28;20212;-62
2023/07/09 05:41:38;;;;;;;3.80;2.10;;;;;;;25.92;88.54;152560.25;5074377;28;20219;-62
2023/07/09 05:44:05;;;;;;;1.85;1.75;;;;;;;25.95;85.46;152565.31;5074374;28;20219;-62
2023/07/09 05:46:37;;;;;;;2.55;2.08;;;;;;;25.91;84.69;152556.38;5074739;28;20623;-61
2023/07/09 05:49:04;;;;;;;1.90;1.80;;;;;;;26.38;83.53;152675.34;5074567;28;20189;-62
2023/07/09 05:51:31;;;;;;;6.07;2.10;;;;;;;26.65;81.78;152744.34;5074766;28;20551;-62
2023/07/09 05:53:58;;;;;;;1.90;1.90;;;;;;;26.77;77.39;152775.09;5074168;28;20181;-62
2023/07/09 05:56:25;;;;;;;3.85;1.92;;;;;;;27.03;79.49;152839.09;5074379;28;20185;-62
2023/07/09 05:58:56;;;;;;;2.22;1.90;;;;;;;26.97;75.94;152823.72;5074739;28;20185;-62
2023/07/09 06:01:23;;;;;;;5.50;2.38;;;;;;;26.90;76.00;152805.81;5074141;28;20662;-62
2023/07/09 06:03:50;;;;;;;2.83;2.50;;;;;;;26.72;79.49;152761.00;5074348;28;20188;-62
2023/07/09 06:06:17;;;;;;;2.60;2.50;;;;;;;26.58;76.94;152725.19;5073933;28;20188;-61
2023/07/09 06:08:44;;;;;;;1.90;1.90;;;;;;;26.78;77.85;152777.59;5073919;28;20196;-61
2023/07/09 06:11:11;;;;;;;4.32;2.03;;;;;;;27.26;77.80;152899.19;5074047;28;20205;-62
2023/07/09 06:13:38;;;;;;;1.88;1.88;;;;;;;27.85;74.75;153046.38;5074015;28;20280;-62
2023/07/09 06:16:06;;;;;;;4.10;2.38;;;;;;;27.92;70.35;153065.56;5073740;28;20204;-61
2023/07/09 06:18:33;;;;;;;5.35;2.20;;;;;;;28.20;70.74;153136.03;5074055;28;20242;-62
2023/07/09 06:21:02;;;;;;;3.88;2.22;;;;;;;28.41;68.22;153189.78;5074009;28;20188;-62
2023/07/09 06:23:30;;;;;;;2.00;1.90;;;;;;;28.77;65.87;153279.47;5074164;28;20555;-62
2023/07/09 06:25:57;;;;;;;3.58;2.10;;;;;;;28.50;66.07;153211.56;5073829;28;20193;-62
2023/07/09 06:28:28;;;;;;;2.22;2.10;;;;;;;28.43;65.70;153193.66;5073620;28;20189;-62
2023/07/09 06:30:56;;;;;;;2.53;2.13;;;;;;;27.77;66.95;153025.91;5073809;28;20606;-62
2023/07/09 06:33:25;;;;;;;2.42;2.22;;;;;;;27.59;69.49;152982.38;5073661;28;20181;-62
2023/07/09 06:35:54;;;;;;;4.57;2.17;;;;;;;27.26;69.77;152899.19;5073019;28;20207;-62
2023/07/09 06:38:22;;;;;;;3.00;2.30;;;;;;;27.05;73.09;152844.19;5072870;28;20284;-61
2023/07/09 06:40:49;;;;;;;4.03;2.28;;;;;;;26.77;75.45;152775.09;5073230;28;20181;-62
2023/07/09 06:43:16;;;;;;;4.55;1.95;;;;;;;26.61;76.32;152734.13;5073262;28;20279;-62
2023/07/09 06:45:50;;;;;;;1.90;1.80;;;;;;;26.54;78.27;152714.94;5073118;28;20239;-61
2023/07/09 06:48:17;;;;;;;2.00;1.90;;;;;;;26.55;77.81;152718.81;5073542;28;20193;-62
2023/07/09 06:50:45;;;;;;;2.30;2.20;;;;;;;26.22;81.28;152635.72;5073479;28;20634;-61
2023/07/09 06:53:12;;;;;;;3.63;2.13;;;;;;;26.33;83.32;152662.53;5073606;28;20646;-62
2023/07/09 06:55:39;;;;;;;6.72;2.55;;;;;;;26.32;78.96;152659.97;5073232;28;20191;-62
2023/07/09 06:58:06;;;;;;;4.38;2.15;;;;;;;26.24;78.46;152640.81;5073282;28;20569;-61
2023/07/09 07:00:34;;;;;;;2.40;2.00;;;;;;;26.30;80.32;152654.88;5073175;28;20191;-62
2023/07/09 07:03:01;;;;;;;2.40;2.30;;;;;;;26.06;76.89;152593.44;5073018;28;20655;-60
2023/07/09 07:05:28;;;;;;;3.15;2.20;;;;;;;26.20;78.08;152629.28;5072919;28;20185;-61
2023/07/09 07:07:56;;;;;;;2.88;2.00;;;;;;;26.16;75.15;152619.03;5072995;28;20181;-61
2023/07/09 07:10:23;;;;;;;2.63;2.05;;;;;;;26.10;73.94;152603.66;5072671;28;20189;-62
2023/07/09 07:12:50;;;;;;;7.07;2.65;;;;;;;26.30;75.00;152654.88;5072636;28;20180;-61
2023/07/09 07:15:18;;;;;;;4.75;3.00;;;;;;;26.28;73.49;152649.75;5072913;28;20650;-62
2023/07/09 07:17:46;;;;;;;3.63;2.40;;;;;;;26.06;73.75;152593.44;5072904;28;20189;-61
2023/07/09 07:20:14;;;;;;;2.42;2.30;;;;;;;26.35;73.54;152668.91;5072612;28;20196;-62
2023/07/09 07:22:41;;;;;;;10.45;3.28;;;;;;;26.40;74.03;152680.41;5072561;28;20213;-62
2023/07/09 07:25:10;;;;;;;6.18;2.25;;;;;;;26.28;73.23;152649.75;5072359;28;20193;-62
2023/07/09 07:27:38;;;;;;;5.80;2.38;;;;;;;26.53;72.83;152713.66;5072191;28;20192;-62
2023/07/09 07:30:08;;;;;;;3.38;2.60;;;;;;;26.52;72.35;152709.88;5072752;28;20184;-62
2023/07/09 07:32:36;;;;;;;7.75;2.95;;;;;;;26.38;73.19;152674.06;5072717;28;20207;-62
2023/07/09 07:35:02;;;;;;;5.18;2.65;;;;;;;26.50;72.47;152704.72;5072742;28;20563;-61
2023/07/09 07:37:29;;;;;;;5.93;2.30;;;;;;;26.54;72.23;152714.94;5072758;28;20181;-62
2023/07/09 07:39:56;;;;;;;14.75;3.40;;;;;;;26.29;69.48;152652.31;5072380;28;20197;-63
2023/07/09 07:42:25;;;;;;;7.95;2.50;;;;;;;26.08;68.75;152598.56;5072063;28;20209;-62
2023/07/09 07:44:52;;;;;;;22.85;3.38;;;;;;;26.08;68.31;152598.56;5072077;28;20327;-62
2023/07/09 07:47:19;;;;;;;18.75;2.90;;;;;;;26.08;70.04;152598.56;5071976;28;20200;-61
2023/07/09 07:49:45;;;;;;;4.57;2.80;;;;;;;25.99;70.02;152576.84;5072687;28;20189;-61
2023/07/09 07:52:13;;;;;;;5.88;2.65;;;;;;;25.90;72.66;152555.09;5072105;28;20192;-62
2023/07/09 07:54:39;;;;;;;8.27;2.58;;;;;;;26.04;73.66;152588.34;5072094;28;20191;-61
2023/07/09 07:57:08;;;;;;;5.25;2.75;;;;;;;26.12;72.24;152608.78;5072024;28;20184;-62
2023/07/09 07:59:37;;;;;;;10.15;2.72;;;;;;;26.22;70.93;152635.72;5072069;28;20180;-62
2023/07/09 08:02:06;;;;;;;6.60;2.30;;;;;;;26.16;70.36;152619.03;5071667;28;20211;-63
2023/07/09 08:04:33;;;;;;;2.67;2.58;;;;;;;26.22;70.05;152634.44;5071787;28;20554;-62
2023/07/09 08:07:00;;;;;;;6.63;2.53;;;;;;;26.10;70.88;152603.66;5071621;28;20272;-62
2023/07/09 08:09:27;;;;;;;17.27;3.92;;;;;;;26.16;70.68;152620.31;5072006;28;20686;-63
2023/07/09 08:11:54;;;;;;;6.10;2.33;;;;;;;26.25;68.97;152642.09;5071650;28;20176;-62
2023/07/09 08:14:20;;;;;;;2.35;2.25;;;;;;;26.51;71.13;152707.28;5072112;28;20271;-62
2023/07/09 08:16:49;;;;;;;2.63;2.50;;;;;;;26.49;69.27;152702.16;5072007;28;20646;-62
2023/07/09 08:19:17;;;;;;;2.03;1.92;;;;;;;26.65;70.72;152744.34;5071984;28;20519;-62
2023/07/09 08:21:44;;;;;;;2.28;2.08;;;;;;;26.78;67.19;152777.59;5071761;28;20196;-62
2023/07/09 08:24:10;;;;;;;4.35;2.13;;;;;;;27.38;63.92;152928.59;5071788;28;20610;-61
2023/07/09 08:26:37;;;;;;;2.58;2.38;;;;;;;27.79;63.99;153032.31;5071489;28;20188;-63
2023/07/09 08:29:05;;;;;;;2.25;2.00;;;;;;;28.23;64.48;153143.69;5071491;28;20235;-62
2023/07/09 08:31:32;;;;;;;6.40;2.08;;;;;;;28.56;60.95;153228.19;5071514;28;20230;-61
2023/07/09 08:34:00;;;;;;;5.75;2.70;;;;;;;28.72;59.43;153266.66;5071793;28;20189;-62
2023/07/09 08:36:29;;;;;;;4.38;2.30;;;;;;;28.88;59.17;153307.63;5071836;28;20180;-62
2023/07/09 08:38:57;;;;;;;4.72;2.50;;;;;;;28.98;59.65;153333.25;5071710;28;20246;-62
2023/07/09 08:41:37;;;;;;;3.17;2.30;;;;;;;28.79;60.04;153284.56;5071314;28;20184;-62
2023/07/09 08:44:28;;;;;;;9.23;2.20;;;;;;;28.91;58.91;153315.31;5071615;28;20203;-62
2023/07/09 08:47:01;;;;;;;2.47;2.30;;;;;;;28.78;60.76;153282.00;5071641;28;20558;-63
2023/07/09 08:49:38;;;;;;;3.95;2.40;;;;;;;28.70;60.27;153262.81;5071304;28;20196;-62
2023/07/09 08:52:13;;;;;;;2.15;2.05;;;;;;;28.35;59.58;153174.41;5071367;28;20184;-62
2023/07/09 08:54:42;;;;;;;2.80;2.40;;;;;;;28.02;61.22;153091.16;5070520;28;20634;-62
2023/07/09 08:57:20;;;;;;;12.20;2.65;;;;;;;27.98;60.33;153079.66;5071292;28;20188;-62
2023/07/09 08:59:48;;;;;;;5.43;2.22;;;;;;;27.90;59.19;153059.16;5072254;28;20184;-63
2023/07/09 09:02:26;;;;;;;10.88;2.63;;;;;;;28.09;59.98;153107.84;5075184;28;20204;-62
2023/07/09 09:04:55;;;;;;;3.58;2.00;;;;;;;28.37;58.63;153179.56;5075050;28;20195;-62
2023/07/09 09:07:36;;;;;;;5.35;2.75;;;;;;;28.52;57.41;153216.66;5075239;28;20188;-62
2023/07/09 09:10:04;;;;;;;4.93;2.40;;;;;;;28.67;57.06;153253.81;5075328;28;20676;-63
2023/07/09 09:12:39;;;;;;;6.07;2.67;;;;;;;28.92;56.65;153317.88;5075267;28;20185;-62
2023/07/09 09:15:18;;;;;;;4.65;2.13;;;;;;;28.98;56.67;153333.25;5074945;28;20229;-61
2023/07/09 09:17:45;;;;;;;6.05;3.00;;;;;;;28.92;56.60;153317.88;5075193;28;20185;-62
2023/07/09 09:20:21;;;;;;;2.65;2.25;;;;;;;29.00;56.44;153339.66;5074812;28;20180;-62
2023/07/09 09:22:51;;;;;;;11.13;2.22;;;;;;;28.95;55.34;153326.81;5074865;28;20732;-62
2023/07/09 09:25:27;;;;;;;4.40;2.75;;;;;;;28.95;55.31;153326.81;5074605;28;20189;-62
2023/07/09 09:27:54;;;;;;;4.93;2.60;;;;;;;29.08;55.19;153358.84;5074892;28;20180;-62
2023/07/09 09:30:23;;;;;;;5.47;2.22;;;;;;;29.24;55.17;153398.59;5074654;28;20188;-62
2023/07/09 09:32:54;;;;;;;2.97;2.65;;;;;;;29.53;55.16;153471.63;5074441;28;20195;-62
2023/07/09 09:35:28;;;;;;;5.35;2.17;;;;;;;29.69;53.57;153512.63;5074755;28;20264;-62
2023/07/09 09:37:56;;;;;;;4.53;2.10;;;;;;;29.70;53.53;153516.50;5074438;28;20180;-63
2023/07/09 09:40:25;;;;;;;2.30;2.10;;;;;;;29.84;53.22;153551.03;5074200;28;20195;-63
2023/07/09 09:42:54;;;;;;;5.25;2.08;;;;;;;30.01;50.72;153593.38;5074608;28;20617;-62
2023/07/09 09:45:25;;;;;;;2.83;2.63;;;;;;;30.34;49.90;153678.00;5074300;28;20232;-62
2023/07/09 09:47:53;;;;;;;2.88;2.50;;;;;;;30.74;47.34;153780.56;5074545;28;20181;-61
2023/07/09 09:50:23;;;;;;;3.28;1.90;;;;;;;31.06;47.68;153861.44;5074200;28;20188;-62
2023/07/09 09:52:50;;;;;;;3.05;2.40;;;;;;;31.42;48.73;153952.44;5074356;28;20189;-62
2023/07/09 09:55:20;;;;;;;5.70;4.00;;;;;;;31.58;47.42;153992.25;5074100;28;20203;-62
2023/07/09 09:57:50;;;;;;;1.98;1.88;;;;;;;32.08;46.61;154120.56;5074362;28;20264;-62
2023/07/09 10:00:19;;;;;;;3.58;2.50;;;;;;;32.39;45.78;154198.84;5073922;28;20290;-62
2023/07/09 10:02:46;;;;;;;3.33;2.30;;;;;;;32.63;45.64;154259.25;5073827;28;20296;-62
2023/07/09 10:05:14;;;;;;;2.05;2.00;;;;;;;32.69;44.18;154274.63;5073414;28;20219;-62
2023/07/09 10:07:49;;;;;;;2.67;2.10;;;;;;;32.39;44.37;154197.56;5074390;28;20605;-62
2023/07/09 10:10:21;;;;;;;3.63;2.60;;;;;;;32.24;43.97;154159.09;5074011;28;20634;-62
2023/07/09 10:12:52;;;;;;;2.38;2.28;;;;;;;32.24;44.13;154159.09;5073938;28;20572;-63
2023/07/09 10:15:35;;;;;;;2.00;1.90;;;;;;;32.25;45.01;154161.66;5074101;28;20181;-64
2023/07/09 10:18:08;;;;;;;2.30;2.20;;;;;;;32.33;45.43;154182.19;5074191;28;20238;-62
2023/07/09 10:20:38;;;;;;;5.93;2.08;;;;;;;32.22;45.84;154153.94;5073792;28;20185;-63
2023/07/09 10:23:23;;;;;;;5.00;2.25;;;;;;;32.22;47.28;154153.94;5073868;28;20209;-61
2023/07/09 10:25:55;;;;;;;2.60;2.40;;;;;;;32.36;45.63;154189.88;5073943;28;20262;-63
2023/07/09 10:29:02;;;;;;;1.98;1.98;;;;;;;32.46;44.44;154215.56;5074005;28;20531;-64
2023/07/09 10:31:40;;;;;;;2.28;2.08;;;;;;;32.66;45.25;154266.94;5073464;28;20184;-60
2023/07/09 10:34:19;;;;;;;3.15;2.20;;;;;;;32.95;44.82;154340.09;5073561;28;20226;-60
2023/07/09 10:37:00;;;;;;;8.68;2.28;;;;;;;32.97;44.85;154345.25;5073459;28;20188;-61
2023/07/09 10:39:33;;;;;;;3.95;2.00;;;;;;;32.67;41.44;154268.22;5073091;28;20200;-59
2023/07/09 10:42:02;;;;;;;2.40;2.30;;;;;;;32.59;42.55;154248.94;5073292;28;20187;-60
2023/07/09 10:47:56;;;;;;;4.88;2.03;;;;;;;32.92;42.29;154332.41;5073279;28;20163;-62
2023/07/09 10:50:30;;;;;;;2.75;1.80;;;;;;;32.83;42.33;154309.28;5072828;28;20192;-61
2023/07/09 10:53:02;;;;;;;2.47;1.77;;;;;;;32.67;42.13;154269.50;5073075;28;20196;-62
2023/07/09 10:55:39;;;;;;;8.02;2.58;;;;;;;32.29;43.24;154173.22;5073249;28;20649;-60
2023/07/09 10:58:20;;;;;;;8.63;2.10;;;;;;;31.88;43.83;154067.91;5073121;28;20188;-61
2023/07/09 11:00:48;;;;;;;2.08;2.00;;;;;;;31.44;44.35;153957.59;5072788;28;20188;-60
2023/07/09 11:03:20;;;;;;;2.58;2.30;;;;;;;31.51;45.82;153974.25;5072751;28;20200;-61
2023/07/09 11:05:49;;;;;;;2.35;2.15;;;;;;;31.46;45.76;153961.41;5072841;28;20200;-60
2023/07/09 11:08:22;;;;;;;3.65;2.35;;;;;;;31.35;46.49;153933.22;5073084;28;20185;-61
2023/07/09 11:10:55;;;;;;;3.38;2.30;;;;;;;31.31;47.00;153922.97;5073317;28;20235;-61
2023/07/09 11:13:27;;;;;;;5.75;2.08;;;;;;;31.40;47.45;153946.06;5072651;28;20295;-61
2023/07/09 11:15:58;;;;;;;2.95;2.30;;;;;;;31.46;46.11;153961.41;5072875;28;20189;-61
2023/07/09 11:18:28;;;;;;;3.28;2.20;;;;;;;31.42;46.09;153951.16;5072762;28;20188;-60
2023/07/09 11:21:02;;;;;;;2.65;2.45;;;;;;;31.37;47.21;153938.31;5072471;28;20276;-60
2023/07/09 11:23:40;;;;;;;2.17;1.95;;;;;;;31.29;46.84;153919.09;5071530;28;20204;-60
2023/07/09 11:26:14;;;;;;;2.47;2.28;;;;;;;31.26;45.49;153912.72;5072362;28;20189;-61
2023/07/09 11:28:48;;;;;;;2.83;2.45;;;;;;;31.13;45.73;153878.06;5072392;28;20275;-61
2023/07/09 11:31:22;;;;;;;6.47;2.42;;;;;;;31.17;45.42;153888.31;5072769;28;20189;-61
2023/07/09 11:33:57;;;;;;;2.42;2.22;;;;;;;31.15;44.31;153884.47;5072197;28;20191;-61